Search for airport 
image banner adimage banner adimage banner ad
image banner ad

46CN - Crystal

Located in Llano, United States

ICAO - 46CN, IATA -

Data provided by Airmate  

General information

Coordinates: N34°29'5" W117°49'35"
Elevation is 3420 feet MSL.
Magnetic variation is 14° East
View others Airports in California

Operational data

Special qualification required
Current time UTC:
Current local time:
Weather at : KPMD - Palmdale Usaf Plant 42 ( 29 km )
METAR: KPMD 231453Z 20004KT 10SM FEW100 23/09 A2999 RMK AO2 SLP128 T02280094 53001
TAF: KPMD 231144Z 2312/2412 VRB05KT P6SM SKC FM232100 25012KT P6SM SKC FM240500 22006KT P6SM SKC
View NOTAMs / SUP AIP / TFR affecting this airport [VIEW]
Communications frequencies: [VIEW]

Runways:

RWY identifierQFULength (ft)Width (ft)SurfaceLDA (ft)
074500250OTHER
254500250OTHER

Airport contact information

Address: Llano United States

Satellite view of 46CN